Time;durP1;ratioP1;P1;durP2;ratioP2;P2;SDS_P1;SDS_P2;PMS_P1;PMS_P2;Temp;Humidity;BMP_temperature;BMP_pressure;BME280_temperature;BME280_humidity;BME280_pressure;Samples;Min_cycle;Max_cycle;Signal;HPM_P1;HPM_P2
2023/05/27 00:00:07;;;;;;;14.77;4.67;;;12.30;1.00;;;;;;5093154;28;20207;-69
2023/05/27 00:02:33;;;;;;;18.77;6.10;;;12.20;1.00;;;;;;5093260;28;20199;-68
2023/05/27 00:04:59;;;;;;;33.70;7.30;;;12.20;1.00;;;;;;5093448;28;20251;-69
2023/05/27 00:07:25;;;;;;;17.47;4.93;;;12.10;1.00;;;;;;5093101;28;20203;-68
2023/05/27 00:09:51;;;;;;;18.33;5.43;;;12.10;1.00;;;;;;5093185;28;20645;-69
2023/05/27 00:12:16;;;;;;;15.30;5.30;;;12.10;1.00;;;;;;5093155;28;20187;-69
2023/05/27 00:14:43;;;;;;;17.93;5.70;;;12.10;1.00;;;;;;5093219;28;20179;-70
2023/05/27 00:17:13;;;;;;;24.07;6.10;;;12.10;1.00;;;;;;5093280;28;20171;-70
2023/05/27 00:19:44;;;;;;;18.40;6.03;;;12.10;1.00;;;;;;5093092;28;20183;-69
2023/05/27 00:22:11;;;;;;;21.53;5.70;;;12.00;1.00;;;;;;5092835;28;20546;-68
2023/05/27 00:24:39;;;;;;;16.13;5.07;;;11.90;1.00;;;;;;5093062;28;20228;-69
2023/05/27 00:27:05;;;;;;;16.67;5.37;;;11.90;1.00;;;;;;5093451;28;20175;-69
2023/05/27 00:29:31;;;;;;;19.23;5.63;;;11.90;1.90;;;;;;5093063;28;20221;-70
2023/05/27 00:31:57;;;;;;;13.40;5.47;;;11.80;2.40;;;;;;5092594;28;20589;-69
2023/05/27 00:34:22;;;;;;;19.63;5.93;;;11.80;3.70;;;;;;5092652;28;20618;-69
2023/05/27 00:36:48;;;;;;;14.60;5.40;;;11.80;5.70;;;;;;5092929;28;20203;-69
2023/05/27 00:39:13;;;;;;;18.67;5.33;;;11.70;7.20;;;;;;5093006;28;20559;-70
2023/05/27 00:41:42;;;;;;;14.93;5.40;;;11.70;7.10;;;;;;5092887;28;20303;-71
2023/05/27 00:44:07;;;;;;;19.17;5.77;;;11.60;10.00;;;;;;5092949;28;20164;-70
2023/05/27 00:46:33;;;;;;;17.50;5.67;;;11.60;11.70;;;;;;5092836;28;20179;-70
2023/05/27 00:48:59;;;;;;;16.60;5.67;;;11.60;13.40;;;;;;5092575;28;20233;-69
2023/05/27 00:51:25;;;;;;;18.13;6.40;;;11.60;15.00;;;;;;5092794;28;20619;-70
2023/05/27 00:53:50;;;;;;;16.30;5.97;;;11.50;16.10;;;;;;5092892;28;20305;-68
2023/05/27 00:56:17;;;;;;;18.20;5.93;;;11.50;17.50;;;;;;5092724;28;20180;-69
2023/05/27 00:58:43;;;;;;;19.50;5.80;;;11.40;18.70;;;;;;5093307;28;20178;-69
2023/05/27 01:01:09;;;;;;;14.57;5.17;;;11.40;19.80;;;;;;5096700;28;20217;-68
2023/05/27 01:03:35;;;;;;;16.83;5.77;;;11.30;21.00;;;;;;5096478;28;20522;-70
2023/05/27 01:06:25;;;;;;;14.97;5.73;;;11.30;22.50;;;;;;5096602;28;20176;-69
2023/05/27 01:09:06;;;;;;;17.53;5.83;;;11.30;24.50;;;;;;5067241;28;20172;-70
2023/05/27 01:11:41;;;;;;;16.67;5.93;;;11.30;25.70;;;;;;5096417;28;20171;-69
2023/05/27 01:14:10;;;;;;;18.57;6.17;;;11.20;27.20;;;;;;5096674;28;20227;-69
2023/05/27 01:16:43;;;;;;;16.63;5.90;;;11.20;28.00;;;;;;5096382;28;20508;-69
2023/05/27 01:19:14;;;;;;;15.60;5.97;;;11.20;29.20;;;;;;5096260;28;20176;-70
2023/05/27 01:21:44;;;;;;;19.57;6.23;;;11.10;30.00;;;;;;5096245;28;20239;-68
2023/05/27 01:24:10;;;;;;;20.37;6.10;;;11.10;31.70;;;;;;5096348;28;20619;-70
2023/05/27 01:26:36;;;;;;;21.17;5.27;;;11.10;32.30;;;;;;5096216;28;20318;-69
2023/05/27 01:29:03;;;;;;;21.03;5.90;;;11.00;34.30;;;;;;5094803;28;20266;-70
2023/05/27 01:31:41;;;;;;;20.03;5.97;;;11.00;35.50;;;;;;5095801;28;20172;-67
2023/05/27 01:34:12;;;;;;;13.03;5.70;;;11.00;36.30;;;;;;5095843;28;20182;-69
2023/05/27 01:36:45;;;;;;;18.07;5.90;;;11.00;38.00;;;;;;5096206;28;20203;-68
2023/05/27 01:39:11;;;;;;;15.70;5.27;;;10.90;40.50;;;;;;5096097;28;20172;-68
2023/05/27 01:41:38;;;;;;;14.50;5.23;;;10.90;41.80;;;;;;5095879;28;20302;-68
2023/05/27 01:44:04;;;;;;;20.57;6.20;;;10.90;43.00;;;;;;5095830;28;20168;-69
2023/05/27 01:46:30;;;;;;;16.07;5.70;;;10.80;44.40;;;;;;5096068;28;20167;-68
2023/05/27 01:48:55;;;;;;;22.83;5.80;;;10.80;46.30;;;;;;5095603;28;20218;-69
2023/05/27 01:51:21;;;;;;;15.87;5.43;;;10.80;47.10;;;;;;5096150;28;20168;-70
2023/05/27 01:53:46;;;;;;;16.77;6.10;;;10.70;48.00;;;;;;5095905;28;20172;-69
2023/05/27 01:56:12;;;;;;;20.20;5.50;;;10.70;50.40;;;;;;5095806;28;20661;-69
2023/05/27 01:58:38;;;;;;;17.10;5.87;;;10.70;53.00;;;;;;5095552;28;20183;-68
2023/05/27 02:01:03;;;;;;;15.53;5.40;;;10.60;55.90;;;;;;5095487;28;20291;-68
2023/05/27 02:03:29;;;;;;;16.33;6.10;;;10.60;57.30;;;;;;5095404;28;20168;-68
2023/05/27 02:05:54;;;;;;;17.40;6.23;;;10.60;58.60;;;;;;5095759;28;20168;-69
2023/05/27 02:08:20;;;;;;;16.40;5.80;;;10.50;62.10;;;;;;5095694;28;20176;-68
2023/05/27 02:10:46;;;;;;;18.07;5.63;;;10.40;66.80;;;;;;5095172;28;20209;-68
2023/05/27 02:13:11;;;;;;;19.77;5.77;;;10.40;69.30;;;;;;5095397;28;20498;-69
2023/05/27 02:15:37;;;;;;;20.37;6.27;;;10.40;72.00;;;;;;5095678;28;20199;-69
2023/05/27 02:18:04;;;;;;;20.60;5.83;;;10.40;71.90;;;;;;5095055;28;20214;-70
2023/05/27 02:20:30;;;;;;;19.00;6.27;;;10.40;72.70;;;;;;5093951;28;20203;-69
2023/05/27 02:22:56;;;;;;;16.30;6.03;;;10.30;77.40;;;;;;5095312;28;20537;-69
2023/05/27 02:25:21;;;;;;;16.57;5.60;;;10.30;80.40;;;;;;5095538;28;20175;-69
2023/05/27 02:27:48;;;;;;;19.73;5.87;;;10.20;82.80;;;;;;5095186;28;20168;-71
2023/05/27 02:30:15;;;;;;;19.03;6.20;;;10.20;87.20;;;;;;5095042;28;20694;-69
2023/05/27 02:32:40;;;;;;;16.90;6.10;;;10.10;90.10;;;;;;5094573;28;20678;-68
2023/05/27 02:35:07;;;;;;;15.53;6.30;;;10.10;90.90;;;;;;5094952;28;20178;-68
2023/05/27 02:37:33;;;;;;;18.93;6.13;;;10.10;92.60;;;;;;5094877;28;20160;-68
2023/05/27 02:39:59;;;;;;;17.30;6.10;;;10.00;94.00;;;;;;5094786;28;20239;-68
2023/05/27 02:42:24;;;;;;;19.53;6.77;;;10.00;95.10;;;;;;5094797;28;20178;-70
2023/05/27 02:44:50;;;;;;;34.77;8.17;;;10.00;96.20;;;;;;5094632;28;20207;-68
2023/05/27 02:47:15;;;;;;;23.57;6.60;;;10.00;96.50;;;;;;5094601;28;20213;-68
2023/05/27 02:49:41;;;;;;;18.47;5.97;;;9.90;97.70;;;;;;5094750;28;20167;-69
2023/05/27 02:52:06;;;;;;;18.00;6.97;;;9.90;99.00;;;;;;5094592;28;20172;-69
2023/05/27 02:54:32;;;;;;;21.83;6.50;;;9.90;99.70;;;;;;5094670;28;20172;-70
2023/05/27 02:56:58;;;;;;;16.43;6.00;;;9.90;99.90;;;;;;5094668;28;20248;-68
2023/05/27 02:59:23;;;;;;;15.13;6.23;;;9.80;99.90;;;;;;5094289;28;20171;-68
2023/05/27 03:01:49;;;;;;;17.83;6.57;;;9.80;99.90;;;;;;5093028;28;20720;-69
2023/05/27 03:04:16;;;;;;;19.37;6.70;;;9.70;99.90;;;;;;5094456;28;20165;-68
2023/05/27 03:06:42;;;;;;;20.03;7.13;;;9.70;99.90;;;;;;5094416;28;20205;-68
2023/05/27 03:09:08;;;;;;;21.37;6.80;;;9.70;99.90;;;;;;5094137;28;20168;-68
2023/05/27 03:11:34;;;;;;;20.27;6.50;;;9.70;99.90;;;;;;5094027;28;20224;-68
2023/05/27 03:14:00;;;;;;;21.93;6.33;;;9.70;99.90;;;;;;5093858;28;20176;-68
2023/05/27 03:16:25;;;;;;;16.33;7.00;;;9.70;99.90;;;;;;5094399;28;20176;-69
2023/05/27 03:18:51;;;;;;;17.73;6.00;;;9.70;99.90;;;;;;5094050;28;20642;-70
2023/05/27 03:21:16;;;;;;;17.13;6.47;;;9.60;99.90;;;;;;5093389;28;20214;-67
2023/05/27 03:23:42;;;;;;;18.73;6.33;;;9.60;99.90;;;;;;5093757;28;20199;-68
2023/05/27 03:26:08;;;;;;;20.80;6.93;;;9.60;99.90;;;;;;5093685;28;20168;-68
2023/05/27 03:28:34;;;;;;;26.20;7.07;;;9.60;99.90;;;;;;5093504;28;20172;-68
2023/05/27 03:31:00;;;;;;;20.63;6.33;;;9.50;99.90;;;;;;5093763;28;20572;-68
2023/05/27 03:33:25;;;;;;;16.90;6.50;;;9.50;99.90;;;;;;5093372;28;20223;-69
2023/05/27 03:35:51;;;;;;;14.93;6.47;;;9.50;99.90;;;;;;5093947;28;20172;-69
2023/05/27 03:38:17;;;;;;;14.17;5.93;;;9.50;99.90;;;;;;5093666;28;20168;-69
2023/05/27 03:40:42;;;;;;;20.40;6.57;;;9.50;99.90;;;;;;5093463;28;20215;-69
2023/05/27 03:43:08;;;;;;;18.40;7.03;;;9.40;99.90;;;;;;5093203;28;20524;-68
2023/05/27 03:45:34;;;;;;;16.63;6.20;;;9.40;99.90;;;;;;5093582;28;20168;-68
2023/05/27 03:47:59;;;;;;;21.40;7.03;;;9.40;99.90;;;;;;5093449;28;20683;-69
2023/05/27 03:50:25;;;;;;;20.57;6.50;;;9.40;99.90;;;;;;5093406;28;20203;-68
2023/05/27 03:52:51;;;;;;;25.40;6.33;;;9.30;99.90;;;;;;5093645;28;20172;-69
2023/05/27 03:55:16;;;;;;;20.03;6.20;;;9.30;99.90;;;;;;5093315;28;20229;-68
2023/05/27 03:57:42;;;;;;;15.40;6.67;;;9.30;99.90;;;;;;5092953;28;20204;-69
2023/05/27 04:00:11;;;;;;;21.77;6.47;;;9.30;99.90;;;;;;5093376;28;20182;-68
2023/05/27 04:02:37;;;;;;;16.50;6.93;;;9.40;99.90;;;;;;5093074;28;20196;-68
2023/05/27 04:05:03;;;;;;;18.73;6.60;;;9.50;99.90;;;;;;5093116;28;20171;-68
2023/05/27 04:07:29;;;;;;;17.10;6.20;;;9.50;99.90;;;;;;5093198;28;20712;-68
2023/05/27 04:09:54;;;;;;;18.03;6.67;;;9.60;99.90;;;;;;5093223;28;20182;-68
2023/05/27 04:12:20;;;;;;;19.13;7.07;;;9.70;99.90;;;;;;5092943;28;20176;-70
2023/05/27 04:14:46;;;;;;;16.97;6.60;;;9.80;99.90;;;;;;5092883;28;20175;-69
2023/05/27 04:17:13;;;;;;;14.13;6.50;;;9.90;99.90;;;;;;5093127;28;20168;-70
2023/05/27 04:19:39;;;;;;;17.93;6.87;;;10.10;97.50;;;;;;5092813;28;20207;-68
2023/05/27 04:22:04;;;;;;;22.57;7.20;;;10.20;90.70;;;;;;5092406;28;20238;-70
2023/05/27 04:24:30;;;;;;;14.47;6.20;;;10.40;77.00;;;;;;5093097;28;20612;-69
2023/05/27 04:26:56;;;;;;;21.83;6.57;;;10.60;67.40;;;;;;5092238;28;20486;-69
2023/05/27 04:29:25;;;;;;;15.43;6.53;;;10.80;52.10;;;;;;5092938;28;20168;-69
2023/05/27 04:31:50;;;;;;;16.97;6.03;;;11.00;50.50;;;;;;5092794;28;20223;-69
2023/05/27 04:34:16;;;;;;;14.13;5.97;;;11.30;38.40;;;;;;5096009;28;20244;-68
2023/05/27 04:36:43;;;;;;;16.27;6.70;;;11.40;26.20;;;;;;5097048;28;20178;-69
2023/05/27 04:39:11;;;;;;;18.33;6.50;;;11.60;18.60;;;;;;5097033;28;20181;-68
2023/05/27 04:41:39;;;;;;;20.30;7.03;;;11.70;16.70;;;;;;5096498;28;20215;-70
2023/05/27 04:44:05;;;;;;;15.13;6.63;;;11.80;2.10;;;;;;5096959;28;20176;-68
2023/05/27 04:46:30;;;;;;;15.67;6.50;;;11.80;1.00;;;;;;5095738;28;20655;-68
2023/05/27 04:48:56;;;;;;;13.97;6.30;;;11.90;2.60;;;;;;5096874;28;20250;-69
2023/05/27 04:51:22;;;;;;;17.70;6.80;;;12.20;1.00;;;;;;5096614;28;20182;-68
2023/05/27 04:53:48;;;;;;;17.00;6.13;;;12.50;1.00;;;;;;5096457;28;20175;-68
2023/05/27 04:56:16;;;;;;;14.80;6.30;;;12.70;1.00;;;;;;5096454;28;20172;-67
2023/05/27 04:58:46;;;;;;;18.80;6.40;;;12.60;1.00;;;;;;5096539;28;20191;-67
2023/05/27 05:01:20;;;;;;;20.67;6.63;;;12.60;1.00;;;;;;5096237;28;20507;-69
2023/05/27 05:04:02;;;;;;;17.57;6.60;;;12.70;1.00;;;;;;5096553;28;20636;-68
2023/05/27 05:06:28;;;;;;;14.50;6.40;;;13.30;1.00;;;;;;5096423;28;20176;-67
2023/05/27 05:08:53;;;;;;;19.20;7.53;;;13.70;1.00;;;;;;5096550;28;20179;-68
2023/05/27 05:11:19;;;;;;;13.87;6.57;;;13.50;1.00;;;;;;5095964;28;20180;-68
2023/05/27 05:13:45;;;;;;;15.57;5.93;;;13.80;1.00;;;;;;5096525;28;20627;-69
2023/05/27 05:16:11;;;;;;;16.97;6.60;;;14.00;1.00;;;;;;5096465;28;20222;-69
2023/05/27 05:18:37;;;;;;;20.00;6.70;;;13.90;1.00;;;;;;5095886;28;20620;-68
2023/05/27 05:21:02;;;;;;;17.00;6.60;;;14.50;1.00;;;;;;5095929;28;20211;-68
2023/05/27 05:23:28;;;;;;;14.63;5.90;;;14.60;1.00;;;;;;5096173;28;20573;-69
2023/05/27 05:25:58;;;;;;;16.50;6.33;;;14.90;1.00;;;;;;5095641;28;20186;-69
2023/05/27 05:28:24;;;;;;;21.07;6.43;;;14.90;1.00;;;;;;5096017;28;20172;-69
2023/05/27 05:30:49;;;;;;;20.27;7.17;;;15.00;1.00;;;;;;5096243;28;20279;-69
2023/05/27 05:33:15;;;;;;;14.40;6.43;;;15.50;1.00;;;;;;5096125;28;20694;-69
2023/05/27 05:35:41;;;;;;;17.33;7.00;;;15.70;99.90;;;;;;5096144;28;20528;-69
2023/05/27 05:38:07;;;;;;;15.03;6.17;;;16.30;99.90;;;;;;5095468;28;20180;-70
2023/05/27 05:40:32;;;;;;;14.47;6.90;;;16.80;1.00;;;;;;5095532;28;20208;-69
2023/05/27 05:42:58;;;;;;;16.63;6.80;;;16.70;1.00;;;;;;5095985;28;20705;-70
2023/05/27 05:45:25;;;;;;;16.43;7.07;;;16.20;1.00;;;;;;5094536;28;20191;-70
2023/05/27 05:47:50;;;;;;;18.83;7.13;;;15.90;99.90;;;;;;5095579;28;20657;-70
2023/05/27 05:50:16;;;;;;;16.10;7.40;;;16.00;1.00;;;;;;5095429;28;20175;-70
2023/05/27 05:52:42;;;;;;;14.00;7.23;;;16.20;1.00;;;;;;5095351;28;20579;-69
2023/05/27 05:55:08;;;;;;;14.03;7.30;;;15.90;99.90;;;;;;5095299;28;20168;-70
2023/05/27 05:57:33;;;;;;;14.27;6.57;;;15.80;99.90;;;;;;5095148;28;20164;-71
2023/05/27 05:59:59;;;;;;;18.73;6.73;;;16.40;1.00;;;;;;5095062;28;20168;-70
2023/05/27 06:02:25;;;;;;;14.73;6.67;;;16.20;99.90;;;;;;5095013;28;20188;-70
2023/05/27 06:04:51;;;;;;;18.27;7.43;;;16.30;1.00;;;;;;5093371;28;20271;-70
2023/05/27 06:07:17;;;;;;;17.43;6.97;;;15.70;99.90;;;;;;5095311;28;20172;-69
2023/05/27 06:09:42;;;;;;;15.23;6.60;;;15.10;1.00;;;;;;5094633;28;20172;-70
2023/05/27 06:12:08;;;;;;;15.93;7.20;;;14.50;1.00;;;;;;5095353;28;20190;-71
2023/05/27 06:14:33;;;;;;;12.97;6.40;;;15.10;1.00;;;;;;5093896;28;20233;-71
2023/05/27 06:17:00;;;;;;;17.10;7.10;;;16.70;1.00;;;;;;5094873;28;20254;-71
2023/05/27 06:19:25;;;;;;;16.70;7.10;;;16.80;1.00;;;;;;5095108;28;20225;-71
2023/05/27 06:21:51;;;;;;;15.17;7.00;;;17.30;53.10;;;;;;5094894;28;20207;-71
2023/05/27 06:24:16;;;;;;;16.93;7.20;;;16.90;99.90;;;;;;5094777;28;20637;-71
2023/05/27 06:26:42;;;;;;;15.43;6.73;;;17.30;1.00;;;;;;5095122;28;20179;-70
2023/05/27 06:29:08;;;;;;;15.10;7.37;;;17.00;1.00;;;;;;5095152;28;20172;-70
2023/05/27 06:31:33;;;;;;;14.00;6.50;;;16.20;1.00;;;;;;5094226;28;20505;-72
2023/05/27 06:33:59;;;;;;;17.17;7.10;;;15.90;99.90;;;;;;5094950;28;20172;-72
2023/05/27 06:36:25;;;;;;;15.97;7.60;;;16.30;1.00;;;;;;5094578;28;20233;-72
2023/05/27 06:38:51;;;;;;;16.40;6.80;;;16.80;99.90;;;;;;5094163;28;20171;-72
2023/05/27 06:41:17;;;;;;;18.15;7.57;;;18.30;99.90;;;;;;5094460;28;20273;-72
2023/05/27 06:43:42;;;;;;;11.30;6.53;;;18.10;99.90;;;;;;5094395;28;20172;-72
2023/05/27 06:46:08;;;;;;;13.25;7.05;;;19.00;1.00;;;;;;5094545;28;20210;-72
2023/05/27 06:48:34;;;;;;;14.10;7.07;;;18.70;1.00;;;;;;5094520;28;20690;-72
2023/05/27 06:50:59;;;;;;;14.88;7.25;;;18.90;99.90;;;;;;5094011;28;20203;-72
2023/05/27 06:53:25;;;;;;;21.33;8.02;;;18.70;1.00;;;;;;5094320;28;20178;-72
2023/05/27 06:55:51;;;;;;;17.77;7.20;;;19.30;1.00;;;;;;5093467;28;20204;-72
2023/05/27 06:58:16;;;;;;;15.07;6.95;;;19.20;1.00;;;;;;5093557;28;20180;-71
2023/05/27 07:00:42;;;;;;;15.30;7.13;;;20.10;1.00;;;;;;5094247;28;20199;-71
2023/05/27 07:03:08;;;;;;;15.07;7.15;;;19.90;1.00;;;;;;5094005;28;20207;-72
2023/05/27 07:05:33;;;;;;;17.13;7.50;;;18.30;99.90;;;;;;5093967;28;20250;-72
2023/05/27 07:07:59;;;;;;;11.98;7.28;;;19.20;23.40;;;;;;5093678;28;20186;-72
2023/05/27 07:10:25;;;;;;;14.85;6.82;;;19.70;99.90;;;;;;5093604;28;20171;-72
2023/05/27 07:12:50;;;;;;;15.25;6.97;;;19.40;99.90;;;;;;5093902;28;20759;-72
2023/05/27 07:15:16;;;;;;;13.65;7.57;;;19.40;99.90;;;;;;5094181;28;20262;-72
2023/05/27 07:17:42;;;;;;;16.75;7.72;;;19.30;1.00;;;;;;5093996;28;20168;-73
2023/05/27 07:20:08;;;;;;;16.60;7.82;;;19.20;99.90;;;;;;5093762;28;20649;-72
2023/05/27 07:22:34;;;;;;;20.75;7.50;;;20.40;99.90;;;;;;5093603;28;20599;-72
2023/05/27 07:25:00;;;;;;;16.95;7.43;;;20.10;1.00;;;;;;5094069;28;20174;-72
2023/05/27 07:27:25;;;;;;;15.30;7.28;;;20.50;1.00;;;;;;5093438;28;20168;-72
2023/05/27 07:29:51;;;;;;;16.65;7.47;;;20.50;1.00;;;;;;5092923;28;20530;-73
2023/05/27 07:32:16;;;;;;;14.35;6.95;;;21.00;99.90;;;;;;5093192;28;20265;-71
2023/05/27 07:34:42;;;;;;;15.18;7.35;;;20.70;99.90;;;;;;5093848;28;20229;-73
2023/05/27 07:37:08;;;;;;;16.05;7.47;;;20.20;1.00;;;;;;5093156;28;20178;-72
2023/05/27 07:39:33;;;;;;;16.85;7.28;;;21.00;1.00;;;;;;5093767;28;20641;-73
2023/05/27 07:41:59;;;;;;;18.63;7.93;;;20.70;99.90;;;;;;5093405;28;20208;-73
2023/05/27 07:44:26;;;;;;;15.73;7.30;;;20.80;1.00;;;;;;5093230;28;20164;-72
2023/05/27 07:46:52;;;;;;;21.08;7.55;;;20.80;99.90;;;;;;5093069;28;20313;-72
2023/05/27 07:49:17;;;;;;;15.15;7.90;;;21.20;99.90;;;;;;5093000;28;20245;-72
2023/05/27 07:51:43;;;;;;;16.48;7.55;;;21.00;99.90;;;;;;5093131;28;20228;-72
2023/05/27 07:54:08;;;;;;;18.52;8.13;;;20.50;99.90;;;;;;5092975;28;20168;-71
2023/05/27 07:56:34;;;;;;;18.70;7.57;;;19.80;1.00;;;;;;5093389;28;20175;-72
2023/05/27 07:59:00;;;;;;;14.55;7.60;;;19.70;73.70;;;;;;5093177;28;20274;-72
2023/05/27 08:01:30;;;;;;;18.67;7.80;;;20.00;52.40;;;;;;5091205;28;20279;-72
2023/05/27 08:03:56;;;;;;;16.77;7.57;;;20.10;1.00;;;;;;5092904;28;20171;-72
2023/05/27 08:06:21;;;;;;;15.30;7.50;;;20.50;1.00;;;;;;5092758;28;20190;-72
2023/05/27 08:08:47;;;;;;;17.15;7.43;;;21.50;99.90;;;;;;5092890;28;20217;-71
2023/05/27 08:11:13;;;;;;;12.48;7.30;;;22.20;1.00;;;;;;5092383;28;20266;-71
2023/05/27 08:13:39;;;;;;;15.27;7.93;;;22.00;1.00;;;;;;5093166;28;20192;-71
2023/05/27 08:16:04;;;;;;;13.43;7.60;;;21.00;75.50;;;;;;5092718;28;20247;-74
2023/05/27 08:18:30;;;;;;;15.05;7.60;;;20.50;99.90;;;;;;5092245;28;20623;-72
2023/05/27 08:20:56;;;;;;;17.90;6.70;;;20.70;1.00;;;;;;5092772;28;20196;-72
2023/05/27 08:23:21;;;;;;;13.32;6.72;;;21.10;99.90;;;;;;5092800;28;20171;-73
2023/05/27 08:25:47;;;;;;;15.48;7.43;;;21.20;99.90;;;;;;5092642;28;20168;-72
2023/05/27 08:28:14;;;;;;;18.70;8.13;;;22.10;1.00;;;;;;5092713;28;20646;-73
2023/05/27 08:30:40;;;;;;;13.77;6.95;;;22.70;1.00;;;;;;5093114;28;20195;-74
2023/05/27 08:33:06;;;;;;;11.77;6.70;;;23.30;1.00;;;;;;5092530;28;20219;-73
2023/05/27 08:35:31;;;;;;;15.93;7.20;;;23.10;1.00;;;;;;5092712;28;20526;-74
2023/05/27 08:37:57;;;;;;;12.80;7.10;;;22.80;1.00;;;;;;5093046;28;20184;-72
2023/05/27 08:40:23;;;;;;;16.95;7.05;;;23.30;1.00;;;;;;5092253;28;20203;-72
2023/05/27 08:42:49;;;;;;;20.15;7.63;;;22.90;1.00;;;;;;5092367;28;20709;-73
2023/05/27 08:45:15;;;;;;;15.95;6.70;;;22.40;1.00;;;;;;5092614;28;20176;-72
2023/05/27 08:47:41;;;;;;;13.35;6.38;;;22.30;1.00;;;;;;5092479;28;20164;-73
2023/05/27 08:50:08;;;;;;;20.38;6.80;;;21.20;1.00;;;;;;5091923;28;20259;-73
2023/05/27 08:52:36;;;;;;;18.50;7.13;;;21.40;1.00;;;;;;5092794;28;20194;-72
2023/05/27 08:55:03;;;;;;;15.57;6.85;;;22.20;1.00;;;;;;5092233;28;20255;-72
2023/05/27 08:57:30;;;;;;;15.48;7.25;;;21.60;1.00;;;;;;5092165;28;20335;-72
2023/05/27 08:59:56;;;;;;;16.33;6.47;;;21.90;1.00;;;;;;5092059;28;20171;-72
2023/05/27 09:02:23;;;;;;;15.30;6.78;;;22.40;1.00;;;;;;5092222;28;20756;-73
2023/05/27 09:04:49;;;;;;;14.75;7.07;;;22.10;1.00;;;;;;5092431;28;20179;-73
2023/05/27 09:07:16;;;;;;;15.80;6.72;;;22.50;1.00;;;;;;5092643;28;20179;-75
2023/05/27 09:09:42;;;;;;;12.68;6.60;;;23.90;1.00;;;;;;5092343;28;20279;-73
2023/05/27 09:12:10;;;;;;;15.45;7.05;;;23.20;1.00;;;;;;5092781;28;20229;-74
2023/05/27 09:14:42;;;;;;;12.68;6.53;;;23.00;1.00;;;;;;5092954;28;20172;-74
2023/05/27 09:17:08;;;;;;;14.15;6.28;;;22.90;1.00;;;;;;5092090;28;20266;-74
2023/05/27 09:19:34;;;;;;;16.73;6.75;;;24.00;99.90;;;;;;5092817;28;20184;-74
2023/05/27 09:22:01;;;;;;;14.55;6.60;;;24.30;99.90;;;;;;5095570;28;20207;-75
2023/05/27 09:24:26;;;;;;;13.52;6.18;;;24.10;99.90;;;;;;5095929;28;20194;-73
2023/05/27 09:26:55;;;;;;;14.32;6.72;;;24.20;99.90;;;;;;5096602;28;20168;-75
2023/05/27 09:29:28;;;;;;;15.15;6.75;;;24.30;99.90;;;;;;5096039;28;20164;-75
2023/05/27 09:31:57;;;;;;;12.30;6.32;;;25.40;99.90;;;;;;5095315;28;20230;-74
2023/05/27 09:34:23;;;;;;;14.43;6.25;;;24.50;99.90;;;;;;5095798;28;20620;-75
2023/05/27 09:36:50;;;;;;;13.38;6.70;;;23.60;99.90;;;;;;5096150;28;20175;-74
2023/05/27 09:39:19;;;;;;;15.85;6.50;;;24.30;99.90;;;;;;5095759;28;20167;-73
2023/05/27 09:41:55;;;;;;;13.90;6.68;;;24.30;99.90;;;;;;5095515;28;20291;-73
2023/05/27 09:44:21;;;;;;;12.68;6.55;;;24.10;99.90;;;;;;5095839;28;20172;-74
2023/05/27 09:46:47;;;;;;;11.15;6.50;;;24.20;99.90;;;;;;5095228;28;20180;-73
2023/05/27 09:49:14;;;;;;;12.20;6.70;;;23.70;99.90;;;;;;5095618;28;20198;-73
2023/05/27 09:51:41;;;;;;;12.70;7.03;;;23.90;99.90;;;;;;5095528;28;20614;-73
2023/05/27 09:54:09;;;;;;;16.33;7.15;;;23.80;99.90;;;;;;5095218;28;20302;-73
2023/05/27 09:56:35;;;;;;;14.48;6.20;;;24.30;99.90;;;;;;5095218;28;20193;-74
2023/05/27 09:59:00;;;;;;;13.60;5.90;;;24.80;99.90;;;;;;5094530;28;20191;-73
2023/05/27 10:01:29;;;;;;;13.88;6.90;;;25.70;99.90;;;;;;5094679;28;20519;-73
2023/05/27 10:03:56;;;;;;;13.68;6.32;;;24.90;99.90;;;;;;5094725;28;20210;-72
2023/05/27 10:06:24;;;;;;;16.70;6.78;;;23.70;99.90;;;;;;5095175;28;20172;-73
2023/05/27 10:08:52;;;;;;;11.60;5.95;;;23.40;99.90;;;;;;5095688;28;20194;-72
2023/05/27 10:11:18;;;;;;;14.95;6.32;;;23.30;99.90;;;;;;5094999;28;20167;-72
2023/05/27 10:13:45;;;;;;;11.90;6.65;;;23.20;99.90;;;;;;5094784;28;20179;-72
2023/05/27 10:16:25;;;;;;;15.20;6.68;;;24.00;99.90;;;;;;5094711;28;20262;-74
2023/05/27 10:18:56;;;;;;;15.55;6.45;;;24.30;99.90;;;;;;5094330;28;20172;-73
2023/05/27 10:21:25;;;;;;;18.25;6.47;;;23.80;99.90;;;;;;5095075;28;20199;-72
2023/05/27 10:23:58;;;;;;;11.20;6.13;;;23.70;99.90;;;;;;5094854;28;20175;-73
2023/05/27 10:26:35;;;;;;;13.15;6.25;;;23.70;99.90;;;;;;5094922;28;20669;-71
2023/05/27 10:29:12;;;;;;;14.18;6.05;;;23.70;99.90;;;;;;5094088;28;20225;-73
2023/05/27 10:31:49;;;;;;;15.00;6.15;;;22.70;1.00;;;;;;5094396;28;20309;-73
2023/05/27 10:34:15;;;;;;;15.18;5.63;;;23.30;1.00;;;;;;5094731;28;20168;-72
2023/05/27 10:36:41;;;;;;;14.70;5.70;;;22.80;1.00;;;;;;5094833;28;20180;-71
2023/05/27 10:39:17;;;;;;;12.98;5.93;;;23.30;1.00;;;;;;5094294;28;20170;-73
2023/05/27 10:41:48;;;;;;;16.73;6.25;;;23.30;1.00;;;;;;5094295;28;20614;-72
2023/05/27 10:44:13;;;;;;;15.57;6.80;;;23.30;1.00;;;;;;5094238;28;20510;-72
2023/05/27 10:46:41;;;;;;;14.18;6.07;;;23.30;99.90;;;;;;5094329;28;20172;-72
2023/05/27 10:49:15;;;;;;;14.00;6.30;;;23.70;99.90;;;;;;5093786;28;20176;-72
2023/05/27 10:51:43;;;;;;;12.30;6.32;;;24.10;99.90;;;;;;5094143;28;20248;-74
2023/05/27 10:54:08;;;;;;;15.32;6.82;;;23.50;1.00;;;;;;5094012;28;20172;-72
2023/05/27 10:56:34;;;;;;;15.00;6.45;;;22.90;1.00;;;;;;5093590;28;20168;-73
2023/05/27 10:59:10;;;;;;;11.73;6.28;;;22.80;1.00;;;;;;5093181;28;20171;-73
2023/05/27 11:01:37;;;;;;;11.98;5.47;;;23.10;1.00;;;;;;5094064;28;20207;-73
2023/05/27 11:04:07;;;;;;;15.32;6.28;;;23.10;1.00;;;;;;5094309;28;20186;-73
2023/05/27 11:06:33;;;;;;;13.35;6.13;;;22.60;1.00;;;;;;5093157;28;20168;-72
2023/05/27 11:08:59;;;;;;;14.10;5.95;;;23.30;1.00;;;;;;5094123;28;20164;-73
2023/05/27 11:11:24;;;;;;;18.67;9.70;;;23.30;1.00;;;;;;5094331;28;20239;-72
2023/05/27 11:13:50;;;;;;;12.85;6.13;;;23.20;1.00;;;;;;5093689;28;20691;-74
2023/05/27 11:16:16;;;;;;;10.23;5.32;;;23.70;99.90;;;;;;5093764;28;20159;-73
2023/05/27 11:18:46;;;;;;;12.52;6.30;;;23.60;99.90;;;;;;5094076;28;20217;-73
2023/05/27 11:21:14;;;;;;;10.50;5.53;;;23.10;1.00;;;;;;5092340;28;20215;-73
2023/05/27 11:23:48;;;;;;;12.90;5.45;;;23.00;99.90;;;;;;5093730;28;20168;-73
2023/05/27 11:26:18;;;;;;;12.27;5.53;;;22.90;1.00;;;;;;5093774;28;20176;-73
2023/05/27 11:28:51;;;;;;;16.35;8.45;;;22.80;1.00;;;;;;5093281;28;20182;-73
2023/05/27 11:31:19;;;;;;;15.30;6.43;;;22.70;1.00;;;;;;5093917;28;20186;-74
2023/05/27 11:33:49;;;;;;;12.13;5.13;;;22.60;1.00;;;;;;5093059;28;20333;-72
2023/05/27 11:36:36;;;;;;;12.95;6.07;;;23.10;99.90;;;;;;5093900;28;20693;-73
2023/05/27 11:39:01;;;;;;;13.68;5.57;;;23.00;99.90;;;;;;5093652;28;20191;-72
2023/05/27 11:41:29;;;;;;;12.27;6.10;;;22.60;99.90;;;;;;5091749;28;20332;-73
2023/05/27 11:44:06;;;;;;;8.30;4.95;;;22.90;99.90;;;;;;5092215;28;20166;-72
2023/05/27 11:46:35;;;;;;;15.07;5.70;;;23.00;99.90;;;;;;5093844;28;20254;-72
2023/05/27 11:49:02;;;;;;;11.55;5.88;;;23.40;99.90;;;;;;5093007;28;20537;-72
2023/05/27 11:51:29;;;;;;;13.25;5.88;;;22.60;99.90;;;;;;5093225;28;20202;-74
2023/05/27 11:53:56;;;;;;;11.55;5.45;;;23.00;99.90;;;;;;5093034;28;20172;-74
2023/05/27 11:56:21;;;;;;;10.70;5.05;;;23.60;99.90;;;;;;5092759;28;20251;-74
2023/05/27 11:58:47;;;;;;;10.57;5.45;;;23.80;99.90;;;;;;5093193;28;20251;-74
2023/05/27 12:01:13;;;;;;;12.02;5.85;;;23.40;99.90;;;;;;5092619;28;20252;-73
2023/05/27 12:03:38;;;;;;;13.73;5.50;;;22.70;99.90;;;;;;5093052;28;20214;-73
2023/05/27 12:06:04;;;;;;;13.73;5.70;;;22.80;99.90;;;;;;5092806;28;20172;-72
2023/05/27 12:08:30;;;;;;;12.23;5.20;;;22.30;99.90;;;;;;5092760;28;20641;-74
2023/05/27 12:10:55;;;;;;;12.68;5.53;;;22.30;99.90;;;;;;5092146;28;20179;-73
2023/05/27 12:13:21;;;;;;;13.63;5.47;;;22.80;99.90;;;;;;5092912;28;20172;-73
2023/05/27 12:15:48;;;;;;;11.38;4.95;;;23.10;99.90;;;;;;5092221;28;20179;-72
2023/05/27 12:18:14;;;;;;;13.07;5.35;;;23.00;99.90;;;;;;5092513;28;20168;-73
2023/05/27 12:20:39;;;;;;;9.45;5.22;;;22.60;99.90;;;;;;5092751;28;20677;-74
2023/05/27 12:23:05;;;;;;;12.43;5.40;;;22.40;99.90;;;;;;5093649;28;20168;-74
2023/05/27 12:25:31;;;;;;;13.77;5.38;;;22.60;99.90;;;;;;5091980;28;20164;-74
2023/05/27 12:27:57;;;;;;;12.80;5.40;;;22.60;99.90;;;;;;5092783;28;20635;-72
2023/05/27 12:30:23;;;;;;;17.27;5.53;;;22.80;99.90;;;;;;5092679;28;20172;-72
2023/05/27 12:32:49;;;;;;;11.82;5.25;;;22.40;99.90;;;;;;5092108;28;20697;-73
2023/05/27 12:35:14;;;;;;;11.85;4.75;;;22.40;99.90;;;;;;5092766;28;20698;-74
2023/05/27 12:37:40;;;;;;;14.40;5.50;;;22.70;99.90;;;;;;5092551;28;20266;-73